createdAt,value
2018-12-12T00:00:40.345Z,94912.05
2018-12-12T00:03:06.995Z,94916.34
2018-12-12T00:05:33.757Z,94916.23
2018-12-12T00:08:00.411Z,94913.56
2018-12-12T00:10:27.104Z,94918.58
2018-12-12T00:12:53.740Z,94918.75
2018-12-12T00:15:20.391Z,94925.91
2018-12-12T00:17:47.054Z,94924.56
2018-12-12T00:20:13.735Z,94928.61
2018-12-12T00:22:40.529Z,94933.04
2018-12-12T00:25:07.172Z,94935.84
2018-12-12T00:27:33.916Z,94928.88
2018-12-12T00:30:00.561Z,94937.10
2018-12-12T00:32:27.208Z,94932.05
2018-12-12T00:34:53.906Z,94939.14
2018-12-12T00:37:23.694Z,94938.56
2018-12-12T00:39:50.334Z,94935.60
2018-12-12T00:42:17.866Z,94938.52
2018-12-12T00:44:43.688Z,94945.55
2018-12-12T00:47:10.392Z,94942.95
2018-12-12T00:49:37.033Z,94946.58
2018-12-12T00:52:03.763Z,94944.84
2018-12-12T00:54:30.417Z,94953.23
2018-12-12T00:56:57.104Z,94948.12
2018-12-12T00:59:23.739Z,94944.06
2018-12-12T01:01:50.390Z,94947.79
2018-12-12T01:04:17.046Z,94952.03
2018-12-12T01:06:43.684Z,94942.56
2018-12-12T01:09:10.368Z,94935.88
2018-12-12T01:11:37.089Z,94945.92
2018-12-12T01:14:03.728Z,94944.70
2018-12-12T01:16:30.379Z,94946.09
2018-12-12T01:18:57.030Z,94944.91
2018-12-12T01:21:23.668Z,94943.15
2018-12-12T01:23:50.310Z,94940.66
2018-12-12T01:26:17.046Z,94939.99
2018-12-12T01:28:43.702Z,94941.88
2018-12-12T01:31:10.367Z,94942.14
2018-12-12T01:33:37.015Z,94940.23
2018-12-12T01:36:03.664Z,94942.42
2018-12-12T01:38:30.305Z,94946.55
2018-12-12T01:40:56.998Z,94937.83
2018-12-12T01:43:23.709Z,94934.30
2018-12-12T01:45:50.397Z,94938.03
2018-12-12T01:48:17.038Z,94938.36
2018-12-12T01:50:43.689Z,94942.20
2018-12-12T01:53:10.330Z,94939.80
2018-12-12T01:55:37.033Z,94942.14
2018-12-12T01:58:03.670Z,94938.34
2018-12-12T02:00:30.333Z,94938.91
2018-12-12T02:02:56.976Z,94945.67
2018-12-12T02:05:23.621Z,94938.23
2018-12-12T02:07:50.256Z,94939.87
2018-12-12T02:10:16.918Z,94938.86
2018-12-12T02:12:43.563Z,94939.23
2018-12-12T02:15:10.212Z,94942.39
2018-12-12T02:17:36.908Z,94944.61
2018-12-12T02:20:03.545Z,94938.81
2018-12-12T02:22:30.190Z,94940.11
2018-12-12T02:24:56.838Z,94943.91
2018-12-12T02:27:23.546Z,94949.67
2018-12-12T02:29:50.198Z,94959.78
2018-12-12T02:32:16.899Z,94962.67
2018-12-12T02:34:43.528Z,94966.68
2018-12-12T02:37:10.269Z,94957.69
2018-12-12T02:39:36.920Z,94951.58
2018-12-12T02:42:03.566Z,94944.28
2018-12-12T02:44:30.211Z,94945.17
2018-12-12T02:46:56.960Z,94937.05
2018-12-12T02:49:23.607Z,94940.20
2018-12-12T02:51:50.266Z,94940.63
2018-12-12T02:54:16.940Z,94935.45
2018-12-12T02:56:43.604Z,94935.83
2018-12-12T02:59:10.288Z,94938.86
2018-12-12T03:01:36.905Z,94937.47
2018-12-12T03:04:03.628Z,94944.06
2018-12-12T03:06:30.350Z,94937.54
2018-12-12T03:08:56.910Z,94939.06
2018-12-12T03:11:23.550Z,94936.66
2018-12-12T03:13:50.186Z,94935.52
2018-12-12T03:16:16.884Z,94937.05
2018-12-12T03:18:43.540Z,94934.64
2018-12-12T03:21:10.191Z,94933.04
2018-12-12T03:23:36.836Z,94937.05
2018-12-12T03:26:03.477Z,94931.60
2018-12-12T03:28:30.171Z,94930.21
2018-12-12T03:30:56.861Z,94933.48
2018-12-12T03:33:26.965Z,94928.19
2018-12-12T03:35:53.610Z,94928.61
2018-12-12T03:38:20.263Z,94931.23
2018-12-12T03:40:46.955Z,94934.76
2018-12-12T03:43:13.654Z,94936.20
2018-12-12T03:45:40.288Z,94936.15
2018-12-12T03:48:06.921Z,94935.50
2018-12-12T03:50:33.626Z,94935.52
2018-12-12T03:53:00.320Z,94948.28
2018-12-12T03:55:26.982Z,94948.02
2018-12-12T03:57:53.615Z,94950.85
2018-12-12T04:00:20.283Z,94951.81
2018-12-12T04:02:46.966Z,94954.91
2018-12-12T04:05:13.612Z,94957.14
2018-12-12T04:07:40.241Z,94956.50
2018-12-12T04:10:06.896Z,94954.01
2018-12-12T04:12:33.584Z,94955.11
2018-12-12T04:15:00.238Z,94954.10
2018-12-12T04:17:26.922Z,94951.95
2018-12-12T04:19:53.652Z,94958.70
2018-12-12T04:22:20.234Z,94958.91
2018-12-12T04:24:46.935Z,94961.69
2018-12-12T04:27:13.573Z,94967.11
2018-12-12T04:29:40.217Z,94967.23
2018-12-12T04:32:06.877Z,94966.61
2018-12-12T04:34:33.570Z,94971.77
2018-12-12T04:37:00.207Z,94968.70
2018-12-12T04:39:26.862Z,94961.69
2018-12-12T04:41:53.498Z,94966.47
2018-12-12T04:44:20.142Z,94971.91
2018-12-12T04:46:46.787Z,94976.58
2018-12-12T04:49:13.427Z,94974.64
2018-12-12T04:51:40.078Z,94975.92
2018-12-12T04:54:06.716Z,94989.94
2018-12-12T04:56:33.357Z,94985.20
2018-12-12T04:59:00.046Z,94991.44
2018-12-12T05:01:26.732Z,94994.31
2018-12-12T05:03:54.671Z,94998.60
2018-12-12T05:06:20.239Z,94992.72
2018-12-12T05:08:46.952Z,94994.17
2018-12-12T05:11:13.667Z,95001.30
2018-12-12T05:13:40.307Z,95005.47
2018-12-12T05:16:06.936Z,95004.97
2018-12-12T05:18:33.591Z,95005.86
2018-12-12T05:21:00.243Z,95005.13
2018-12-12T05:23:26.934Z,95006.81
2018-12-12T05:25:53.570Z,95003.90
2018-12-12T05:28:20.223Z,95008.58
2018-12-12T05:30:46.867Z,95004.17
2018-12-12T05:33:13.563Z,95009.33
2018-12-12T05:35:40.252Z,95009.47
2018-12-12T05:38:06.886Z,95018.84
2018-12-12T05:40:33.526Z,95017.59
2018-12-12T05:43:00.230Z,95016.28
2018-12-12T05:45:26.883Z,95009.33
2018-12-12T05:47:53.513Z,95008.27
2018-12-12T05:50:20.151Z,95015.34
2018-12-12T05:52:46.791Z,95015.55
2018-12-12T05:55:13.442Z,95016.06
2018-12-12T05:57:40.141Z,95020.76
2018-12-12T06:00:06.953Z,95025.20
2018-12-12T06:02:33.600Z,95031.58
2018-12-12T06:05:00.246Z,95032.98
2018-12-12T06:07:26.949Z,95029.13
2018-12-12T06:09:53.584Z,95029.63
2018-12-12T06:12:20.291Z,95026.84
2018-12-12T06:14:46.877Z,95028.69
2018-12-12T06:17:13.531Z,95032.16
2018-12-12T06:19:40.170Z,95033.25
2018-12-12T06:22:06.864Z,95034.50
2018-12-12T06:24:33.509Z,95030.83
2018-12-12T06:27:00.154Z,95033.23
2018-12-12T06:29:26.853Z,95039.17
2018-12-12T06:31:53.503Z,95039.11
2018-12-12T06:34:20.154Z,95052.27
2018-12-12T06:36:46.841Z,95045.27
2018-12-12T06:39:13.515Z,95048.61
2018-12-12T06:41:40.166Z,95045.89
2018-12-12T06:44:06.813Z,95054.51
2018-12-12T06:46:33.452Z,95055.63
2018-12-12T06:49:00.116Z,95054.20
2018-12-12T06:51:26.873Z,95053.30
2018-12-12T06:53:53.582Z,95053.67
2018-12-12T06:56:20.230Z,95058.18
2018-12-12T06:58:46.882Z,95059.30
2018-12-12T07:01:13.619Z,95058.75
2018-12-12T07:03:40.347Z,95056.53
2018-12-12T07:06:07.132Z,95062.85
2018-12-12T07:08:33.779Z,95068.97
2018-12-12T07:11:00.482Z,95069.22
2018-12-12T07:13:27.160Z,95067.83
2018-12-12T07:15:53.798Z,95070.30
2018-12-12T07:18:20.459Z,95067.38
2018-12-12T07:20:47.156Z,95072.62
2018-12-12T07:23:13.814Z,95073.37
2018-12-12T07:25:40.474Z,95083.41
2018-12-12T07:28:07.185Z,95084.23
2018-12-12T07:30:33.826Z,95086.31
2018-12-12T07:33:00.532Z,95090.57
2018-12-12T07:35:27.220Z,95090.14
2018-12-12T07:37:53.958Z,95090.75
2018-12-12T07:40:20.768Z,95089.19
2018-12-12T07:42:47.374Z,95085.11
2018-12-12T07:45:14.036Z,95086.97
2018-12-12T07:47:40.686Z,95094.44
2018-12-12T07:50:07.338Z,95100.00
2018-12-12T07:52:34.109Z,95107.62
2018-12-12T07:55:00.973Z,95098.73
2018-12-12T07:57:27.718Z,95102.92
2018-12-12T07:59:54.371Z,95102.03
2018-12-12T08:02:21.070Z,95106.09
2018-12-12T08:04:47.769Z,95104.94
2018-12-12T08:07:17.176Z,95111.48
2018-12-12T08:09:43.831Z,95107.31
2018-12-12T08:12:10.505Z,95119.08
2018-12-12T08:14:37.232Z,95114.44
2018-12-12T08:17:03.880Z,95120.89
2018-12-12T08:19:30.525Z,95113.96
2018-12-12T08:21:57.184Z,95118.16
2018-12-12T08:24:23.843Z,95123.99
2018-12-12T08:26:50.649Z,95121.69
2018-12-12T08:29:17.311Z,95127.39
2018-12-12T08:31:43.954Z,95129.48
2018-12-12T08:34:10.754Z,95134.38
2018-12-12T08:36:37.469Z,95132.04
2018-12-12T08:39:04.249Z,95131.41
2018-12-12T08:41:30.959Z,95137.39
2018-12-12T08:43:59.057Z,95136.88
2018-12-12T08:46:24.248Z,95137.92
2018-12-12T08:48:51.226Z,95133.22
2018-12-12T08:51:20.615Z,95139.26
2018-12-12T08:53:49.961Z,95139.67
2018-12-12T08:56:19.490Z,95139.61
2018-12-12T08:58:46.185Z,95136.99
2018-12-12T09:01:12.879Z,95136.59
2018-12-12T09:03:42.367Z,95136.38
2018-12-12T09:06:09.075Z,95126.89
2018-12-12T09:08:35.765Z,95131.14
2018-12-12T09:11:02.500Z,95136.83
2018-12-12T09:13:32.585Z,95135.30
2018-12-12T09:15:59.340Z,95136.19
2018-12-12T09:18:26.019Z,95027.05
2018-12-12T09:20:52.674Z,95129.17
2018-12-12T09:23:19.451Z,95124.20
2018-12-12T09:25:46.207Z,95126.03
2018-12-12T09:28:12.915Z,95130.02
2018-12-12T09:30:39.558Z,95127.70
2018-12-12T09:33:07.266Z,95127.33
2018-12-12T09:35:33.923Z,95126.64
2018-12-12T09:38:00.566Z,95113.05
2018-12-12T09:40:27.236Z,95114.69
2018-12-12T09:42:53.908Z,95126.80
2018-12-12T09:45:21.790Z,95114.58
2018-12-12T09:47:47.199Z,95101.02
2018-12-12T09:50:13.850Z,95112.28
2018-12-12T09:52:40.524Z,95109.50
2018-12-12T09:55:07.265Z,95109.06
2018-12-12T09:57:33.968Z,95095.56
2018-12-12T10:00:00.630Z,95097.60
2018-12-12T10:02:27.268Z,95091.52
2018-12-12T10:04:53.982Z,95096.02
2018-12-12T10:07:20.712Z,95090.48
2018-12-12T10:09:47.357Z,95096.20
2018-12-12T10:12:14.058Z,95086.84
2018-12-12T10:14:40.710Z,95085.55
2018-12-12T10:17:07.362Z,95091.39
2018-12-12T10:19:34.005Z,95079.92
2018-12-12T10:22:00.651Z,95080.94
2018-12-12T10:24:27.319Z,95080.45
2018-12-12T10:26:54.035Z,95086.60
2018-12-12T10:29:20.715Z,95077.86
2018-12-12T10:31:47.360Z,95082.73
2018-12-12T10:34:14.021Z,95080.21
2018-12-12T10:36:40.698Z,95079.20
2018-12-12T10:39:07.471Z,95068.38
2018-12-12T10:41:34.118Z,95080.39
2018-12-12T10:44:00.765Z,95074.17
2018-12-12T10:46:27.413Z,95069.45
2018-12-12T10:48:54.068Z,95073.86
2018-12-12T10:51:20.735Z,95067.99
2018-12-12T10:53:47.436Z,95074.18
2018-12-12T10:56:14.091Z,95062.98
2018-12-12T10:58:40.740Z,95066.52
2018-12-12T11:01:07.523Z,95067.04
2018-12-12T11:03:36.789Z,95062.68
2018-12-12T11:06:03.452Z,95067.97
2018-12-12T11:08:30.121Z,95066.45
2018-12-12T11:10:56.787Z,95071.30
2018-12-12T11:13:23.425Z,95070.27
2018-12-12T11:15:50.083Z,95071.39
2018-12-12T11:18:16.884Z,95071.72
2018-12-12T11:20:43.541Z,95070.90
2018-12-12T11:23:10.235Z,95061.76
2018-12-12T11:25:36.884Z,95067.45
2018-12-12T11:28:03.529Z,95055.58
2018-12-12T11:30:30.192Z,95055.22
2018-12-12T11:32:56.855Z,95059.09
2018-12-12T11:35:23.503Z,95054.95
2018-12-12T11:37:51.133Z,95055.66
2018-12-12T11:40:17.812Z,95055.91
2018-12-12T11:42:44.454Z,95053.30
2018-12-12T11:45:11.150Z,95054.06
2018-12-12T11:47:38.811Z,95057.48
2018-12-12T11:50:05.464Z,95060.67
2018-12-12T11:52:32.125Z,95054.67
2018-12-12T11:54:58.792Z,95056.03
2018-12-12T11:57:25.440Z,95062.82
2018-12-12T11:59:52.117Z,95062.06
2018-12-12T12:02:18.915Z,95058.00
2018-12-12T12:04:45.578Z,95055.48
2018-12-12T12:07:12.217Z,95054.33
2018-12-12T12:09:38.879Z,95051.09
2018-12-12T12:12:05.674Z,95047.17
2018-12-12T12:14:32.320Z,95057.19
2018-12-12T12:16:58.970Z,95055.64
2018-12-12T12:19:25.611Z,95056.50
2018-12-12T12:21:52.293Z,95052.92
2018-12-12T12:24:18.960Z,95051.41
2018-12-12T12:26:45.610Z,95057.63
2018-12-12T12:29:12.262Z,95054.40
2018-12-12T12:31:39.283Z,95065.61
2018-12-12T12:34:05.938Z,95065.03
2018-12-12T12:36:32.629Z,95064.48
2018-12-12T12:38:59.401Z,95062.25
2018-12-12T12:41:26.064Z,95068.34
2018-12-12T12:43:53.192Z,95061.06
2018-12-12T12:46:19.854Z,95075.14
2018-12-12T12:48:46.575Z,95067.27
2018-12-12T12:51:13.352Z,95072.20
2018-12-12T12:53:40.023Z,95076.06
2018-12-12T12:56:06.664Z,95078.80
2018-12-12T12:58:33.317Z,95075.19
2018-12-12T13:00:59.966Z,95076.39
2018-12-12T13:03:26.622Z,95074.96
2018-12-12T13:05:53.279Z,95075.56
2018-12-12T13:08:19.931Z,95083.80
2018-12-12T13:10:46.980Z,95080.91
2018-12-12T13:13:13.824Z,95089.61
2018-12-12T13:15:40.386Z,95083.34
2018-12-12T13:18:08.050Z,95091.83
2018-12-12T13:20:34.708Z,95092.66
2018-12-12T13:23:01.427Z,95095.12
2018-12-12T13:25:28.136Z,95091.97
2018-12-12T13:27:54.808Z,95093.42
2018-12-12T13:30:21.559Z,95098.06
2018-12-12T13:32:48.229Z,95104.42
2018-12-12T13:35:14.905Z,95100.91
2018-12-12T13:37:41.570Z,95100.41
2018-12-12T13:40:08.204Z,95105.14
2018-12-12T13:42:34.858Z,95109.82
2018-12-12T13:45:01.515Z,95107.61
2018-12-12T13:47:28.147Z,95110.59
2018-12-12T13:49:55.283Z,95114.87
2018-12-12T13:52:21.819Z,95108.35
2018-12-12T13:54:48.532Z,95115.39
2018-12-12T13:57:15.213Z,95120.47
2018-12-12T13:59:41.958Z,95123.23
2018-12-12T14:02:08.606Z,95121.84
2018-12-12T14:04:35.358Z,95123.05
2018-12-12T14:07:02.013Z,95126.09
2018-12-12T14:09:28.710Z,95131.41
2018-12-12T14:11:55.358Z,95132.16
2018-12-12T14:14:23.074Z,95131.09
2018-12-12T14:16:49.737Z,95133.94
2018-12-12T14:19:16.447Z,95135.00
2018-12-12T14:21:43.163Z,95136.86
2018-12-12T14:24:09.813Z,95139.47
2018-12-12T14:26:37.663Z,95139.45
2018-12-12T14:29:04.394Z,95138.05
2018-12-12T14:31:34.308Z,95145.16
2018-12-12T14:34:00.976Z,95141.37
2018-12-12T14:36:28.015Z,95137.55
2018-12-12T14:38:54.707Z,95143.83
2018-12-12T14:41:21.313Z,95138.08
2018-12-12T14:43:47.954Z,95141.48
2018-12-12T14:46:14.632Z,95136.02
2018-12-12T14:48:41.290Z,95138.63
2018-12-12T14:51:10.685Z,95143.45
2018-12-12T14:53:37.344Z,95136.67
2018-12-12T14:56:04.006Z,95148.02
2018-12-12T14:58:30.711Z,95148.94
2018-12-12T15:00:57.369Z,95147.19
2018-12-12T15:03:24.030Z,95148.56
2018-12-12T15:05:51.693Z,95147.54
2018-12-12T15:08:18.345Z,95153.41
2018-12-12T15:10:45.052Z,95152.95
2018-12-12T15:13:11.698Z,95153.55
2018-12-12T15:15:38.378Z,95147.44
2018-12-12T15:18:05.183Z,95150.23
2018-12-12T15:20:31.834Z,95151.20
2018-12-12T15:22:58.495Z,95149.48
2018-12-12T15:25:25.142Z,95156.97
2018-12-12T15:27:51.785Z,95153.16
2018-12-12T15:30:20.794Z,95149.52
2018-12-12T15:32:47.428Z,95151.52
2018-12-12T15:35:14.125Z,95149.81
2018-12-12T15:37:40.777Z,95151.83
2018-12-12T15:40:07.467Z,95154.25
2018-12-12T15:42:34.155Z,95156.33
2018-12-12T15:45:00.856Z,95152.22
2018-12-12T15:47:27.548Z,95151.53
2018-12-12T15:49:54.320Z,95155.13
2018-12-12T15:52:20.965Z,95156.33
2018-12-12T15:54:47.651Z,95159.94
2018-12-12T15:57:14.301Z,95165.84
2018-12-12T15:59:40.969Z,95156.98
2018-12-12T16:02:07.674Z,95155.34
2018-12-12T16:04:37.697Z,95152.99
2018-12-12T16:07:04.338Z,95158.38
2018-12-12T16:09:30.986Z,95156.84
2018-12-12T16:11:57.709Z,95149.47
2018-12-12T16:14:24.361Z,95152.15
2018-12-12T16:16:51.011Z,95148.70
2018-12-12T16:19:17.668Z,95150.95
2018-12-12T16:21:44.312Z,95140.39
2018-12-12T16:24:11.019Z,95150.84
2018-12-12T16:26:37.674Z,95154.06
2018-12-12T16:29:04.320Z,95154.92
2018-12-12T16:31:30.971Z,95157.78
2018-12-12T16:33:57.615Z,95155.55
2018-12-12T16:36:24.263Z,95162.31
2018-12-12T16:38:50.914Z,95160.91
2018-12-12T16:41:17.566Z,95163.95
2018-12-12T16:43:44.221Z,95167.77
2018-12-12T16:46:10.878Z,95167.00
2018-12-12T16:48:37.552Z,95159.03
2018-12-12T16:51:04.207Z,95167.50
2018-12-12T16:53:31.001Z,95169.29
2018-12-12T16:55:57.654Z,95172.14
2018-12-12T16:58:24.289Z,95170.11
2018-12-12T17:00:50.952Z,95175.30
2018-12-12T17:03:17.597Z,95176.81
2018-12-12T17:05:44.261Z,95177.45
2018-12-12T17:08:10.958Z,95177.83
2018-12-12T17:10:37.592Z,95179.86
2018-12-12T17:13:04.250Z,95184.74
2018-12-12T17:15:30.921Z,95181.75
2018-12-12T17:17:57.572Z,95182.39
2018-12-12T17:20:24.235Z,95191.17
2018-12-12T17:22:51.100Z,95190.23
2018-12-12T17:25:17.736Z,95199.73
2018-12-12T17:27:44.388Z,95201.66
2018-12-12T17:30:11.109Z,95195.29
2018-12-12T17:32:37.762Z,95200.36
2018-12-12T17:35:08.802Z,95205.46
2018-12-12T17:37:31.234Z,95202.56
2018-12-12T17:39:58.030Z,95207.98
2018-12-12T17:42:24.690Z,95207.82
2018-12-12T17:44:51.605Z,95207.70
2018-12-12T17:47:18.282Z,95206.78
2018-12-12T17:49:44.939Z,95209.80
2018-12-12T17:52:11.771Z,95204.83
2018-12-12T17:54:38.384Z,95202.73
2018-12-12T17:57:05.081Z,95197.33
2018-12-12T17:59:31.839Z,95197.33
2018-12-12T18:01:58.616Z,95194.98
2018-12-12T18:04:25.485Z,95192.44
2018-12-12T18:06:52.441Z,95193.30
2018-12-12T18:09:19.074Z,95190.92
2018-12-12T18:11:45.899Z,95191.00
2018-12-12T18:14:12.885Z,95193.02
2018-12-12T18:16:39.523Z,95195.23
2018-12-12T18:19:06.506Z,95197.91
2018-12-12T18:21:33.644Z,95192.08
2018-12-12T18:24:00.553Z,95195.22
2018-12-12T18:26:28.071Z,95195.98
2018-12-12T18:28:54.951Z,95189.93
2018-12-12T18:31:21.900Z,95203.27
2018-12-12T18:33:48.713Z,95210.31
2018-12-12T18:36:15.433Z,95213.47
2018-12-12T18:38:42.166Z,95216.30
2018-12-12T18:41:08.822Z,95222.89
2018-12-12T18:43:35.499Z,95225.92
2018-12-12T18:46:02.302Z,95223.83
2018-12-12T18:48:28.979Z,95224.83
2018-12-12T18:50:55.621Z,95229.33
2018-12-12T18:53:22.283Z,95230.11
2018-12-12T18:55:48.953Z,95224.25
2018-12-12T18:58:15.602Z,95228.80
2018-12-12T19:00:42.268Z,95229.11
2018-12-12T19:03:08.954Z,95227.29
2018-12-12T19:05:35.646Z,95235.27
2018-12-12T19:08:02.376Z,95243.40
2018-12-12T19:10:29.038Z,95240.20
2018-12-12T19:12:55.690Z,95247.71
2018-12-12T19:15:22.358Z,95247.38
2018-12-12T19:17:49.064Z,95246.15
2018-12-12T19:20:15.652Z,95245.53
2018-12-12T19:22:42.375Z,95246.57
2018-12-12T19:25:09.046Z,95246.66
2018-12-12T19:27:35.683Z,95243.55
2018-12-12T19:30:02.356Z,95245.73
2018-12-12T19:32:29.016Z,95247.75
2018-12-12T19:34:55.837Z,95247.22
2018-12-12T19:37:22.488Z,95248.22
2018-12-12T19:39:49.160Z,95248.89
2018-12-12T19:42:15.785Z,95246.11
2018-12-12T19:44:42.455Z,95247.64
2018-12-12T19:47:09.188Z,95240.86
2018-12-12T19:49:35.834Z,95236.05
2018-12-12T19:52:02.482Z,95246.84
2018-12-12T19:54:29.194Z,95246.71
2018-12-12T19:56:55.915Z,95245.58
2018-12-12T19:59:22.715Z,95234.66
2018-12-12T20:01:49.349Z,95241.02
2018-12-12T20:04:16.124Z,95241.23
2018-12-12T20:06:42.770Z,95235.58
2018-12-12T20:09:09.431Z,95231.54
2018-12-12T20:11:36.129Z,95238.03
2018-12-12T20:14:02.811Z,95232.34
2018-12-12T20:16:29.473Z,95238.23
2018-12-12T20:18:56.103Z,95232.22
2018-12-12T20:21:22.796Z,95237.78
2018-12-12T20:23:49.443Z,95235.89
2018-12-12T20:26:16.098Z,95232.77
2018-12-12T20:28:42.748Z,95235.00
2018-12-12T20:31:09.399Z,95240.73
2018-12-12T20:33:36.043Z,95237.06
2018-12-12T20:36:02.735Z,95245.29
2018-12-12T20:38:29.402Z,95245.53
2018-12-12T20:40:56.069Z,95238.63
2018-12-12T20:43:22.715Z,95246.21
2018-12-12T20:45:49.426Z,95246.60
2018-12-12T20:48:16.081Z,95244.91
2018-12-12T20:50:42.779Z,95252.07
2018-12-12T20:53:09.435Z,95246.59
2018-12-12T20:55:36.136Z,95243.94
2018-12-12T20:58:02.786Z,95247.10
2018-12-12T21:00:29.438Z,95242.72
2018-12-12T21:02:56.190Z,95247.61
2018-12-12T21:05:22.932Z,95245.66
2018-12-12T21:07:49.575Z,95244.70
2018-12-12T21:10:16.349Z,95247.77
2018-12-12T21:12:43.103Z,95243.27
2018-12-12T21:15:09.774Z,95252.58
2018-12-12T21:17:36.469Z,95244.36
2018-12-12T21:20:03.165Z,95251.45
2018-12-12T21:22:29.858Z,95246.27
2018-12-12T21:24:56.523Z,95249.42
2018-12-12T21:27:23.164Z,95248.28
2018-12-12T21:29:49.849Z,95251.11
2018-12-12T21:32:16.542Z,95249.20
2018-12-12T21:34:43.187Z,95252.24
2018-12-12T21:37:09.833Z,95258.48
2018-12-12T21:39:36.497Z,95255.95
2018-12-12T21:42:03.188Z,95258.60
2018-12-12T21:44:29.838Z,95260.38
2018-12-12T21:46:56.484Z,95257.84
2018-12-12T21:49:23.131Z,95260.63
2018-12-12T21:51:49.783Z,95257.38
2018-12-12T21:54:16.479Z,95256.62
2018-12-12T21:56:43.121Z,95253.72
2018-12-12T21:59:09.820Z,95252.95
2018-12-12T22:01:36.465Z,95257.27
2018-12-12T22:04:03.596Z,95259.32
2018-12-12T22:06:30.259Z,95254.64
2018-12-12T22:08:56.901Z,95249.92
2018-12-12T22:11:23.588Z,95250.56
2018-12-12T22:13:50.225Z,95255.75
2018-12-12T22:16:16.917Z,95251.52
2018-12-12T22:18:43.558Z,95249.09
2018-12-12T22:21:10.201Z,95248.99
2018-12-12T22:23:36.843Z,95243.17
2018-12-12T22:26:03.490Z,95242.25
2018-12-12T22:28:30.138Z,95247.86
2018-12-12T22:30:56.919Z,95249.03
2018-12-12T22:33:23.569Z,95251.05
2018-12-12T22:35:50.222Z,95252.67
2018-12-12T22:38:16.859Z,95246.88
2018-12-12T22:40:43.511Z,95250.78
2018-12-12T22:43:10.148Z,95243.20
2018-12-12T22:45:36.788Z,95244.08
2018-12-12T22:48:03.439Z,95243.98
2018-12-12T22:50:30.076Z,95238.92
2018-12-12T22:52:56.716Z,95247.48
2018-12-12T22:55:23.408Z,95241.30
2018-12-12T22:57:50.053Z,95242.98
2018-12-12T23:00:16.713Z,95238.80
2018-12-12T23:02:43.355Z,95237.00
2018-12-12T23:05:10.051Z,95240.33
2018-12-12T23:07:36.689Z,95240.20
2018-12-12T23:10:03.382Z,95244.08
2018-12-12T23:12:30.020Z,95243.83
2018-12-12T23:14:56.722Z,95245.13
2018-12-12T23:17:23.379Z,95244.02
2018-12-12T23:19:50.106Z,95245.67
2018-12-12T23:22:16.756Z,95245.00
2018-12-12T23:24:43.393Z,95243.36
2018-12-12T23:27:10.065Z,95242.77
2018-12-12T23:29:36.805Z,95245.29
2018-12-12T23:32:03.451Z,95248.16
2018-12-12T23:34:30.090Z,95237.33
2018-12-12T23:36:56.774Z,95241.25
2018-12-12T23:39:23.475Z,95242.68
2018-12-12T23:41:50.129Z,95254.44
2018-12-12T23:44:16.865Z,95255.31
2018-12-12T23:46:43.515Z,95262.64
2018-12-12T23:49:10.153Z,95260.16
2018-12-12T23:51:36.860Z,95252.06
2018-12-12T23:54:03.498Z,95250.94
2018-12-12T23:56:30.137Z,95257.51
2018-12-12T23:58:56.791Z,95253.72
